Time;durP1;ratioP1;P1;durP2;ratioP2;P2;SDS_P1;SDS_P2;PMS_P1;PMS_P2;Temp;Humidity;BMP_temperature;BMP_pressure;BME280_temperature;BME280_humidity;BME280_pressure;Samples;Min_cycle;Max_cycle;Signal;HPM_P1;HPM_P2
2023/05/07 00:01:29;;;;;;;17.67;15.80;;;;;;;8.48;91.00;101553.84;7394331;19;20503;-70
2023/05/07 00:03:57;;;;;;;18.58;15.82;;;;;;;8.48;91.06;101559.94;7393197;19;20018;-68
2023/05/07 00:06:28;;;;;;;17.08;15.27;;;;;;;8.48;90.89;101559.94;7394580;19;20078;-69
2023/05/07 00:09:00;;;;;;;18.55;16.08;;;;;;;8.48;90.79;101559.94;7394988;19;20041;-69
2023/05/07 00:11:29;;;;;;;19.85;15.85;;;;;;;8.48;90.84;101564.31;7394219;19;20452;-70
2023/05/07 00:13:57;;;;;;;20.27;15.93;;;;;;;8.48;90.78;101559.06;7392992;19;20070;-69
2023/05/07 00:16:26;;;;;;;17.95;15.10;;;;;;;8.48;90.60;101561.69;7391980;19;20410;-69
2023/05/07 00:18:55;;;;;;;18.73;15.48;;;;;;;8.48;90.57;101570.41;7394308;19;20085;-69
2023/05/07 00:21:26;;;;;;;17.40;15.38;;;;;;;8.49;90.61;101560.78;7394221;19;20090;-69
2023/05/07 00:23:54;;;;;;;17.65;15.65;;;;;;;8.50;90.61;101561.69;7392340;19;20481;-69
2023/05/07 00:26:25;;;;;;;16.70;14.60;;;;;;;8.50;90.33;101562.53;7394153;19;20014;-69
2023/05/07 00:28:54;;;;;;;18.77;15.43;;;;;;;8.49;90.50;101563.41;7394131;19;20123;-69
2023/05/07 00:31:22;;;;;;;17.13;14.48;;;;;;;8.49;90.32;101560.78;7393990;19;20023;-69
2023/05/07 00:33:51;;;;;;;21.67;15.48;;;;;;;8.50;90.36;101559.06;7392112;19;20502;-69
2023/05/07 00:36:19;;;;;;;18.98;15.30;;;;;;;8.50;90.16;101561.69;7391732;19;20019;-68
2023/05/07 00:38:54;;;;;;;16.30;14.55;;;;;;;8.49;90.25;101558.19;7395173;19;20044;-69
2023/05/07 00:41:25;;;;;;;15.65;13.85;;;;;;;8.50;90.29;101556.44;7401451;19;20096;-68
2023/05/07 00:43:54;;;;;;;16.23;13.77;;;;;;;8.48;90.26;101559.06;7398590;19;20014;-68
2023/05/07 00:46:23;;;;;;;16.67;14.48;;;;;;;8.48;90.32;101559.94;7400478;19;20015;-69
2023/05/07 00:48:52;;;;;;;16.33;13.30;;;;;;;8.48;90.16;101556.47;7397819;19;20481;-68
2023/05/07 00:51:21;;;;;;;15.00;13.02;;;;;;;8.48;90.40;101556.47;7397996;19;20498;-69
2023/05/07 00:53:49;;;;;;;17.17;14.23;;;;;;;8.48;90.29;101559.06;7398864;19;20022;-69
2023/05/07 00:56:18;;;;;;;15.35;13.73;;;;;;;8.48;90.26;101559.06;7400522;19;20014;-69
2023/05/07 00:58:49;;;;;;;15.23;13.48;;;;;;;8.48;90.12;101557.31;7397512;19;20011;-69
2023/05/07 01:01:18;;;;;;;16.98;14.45;;;;;;;8.48;90.18;101559.94;7398348;19;20022;-69
2023/05/07 01:03:46;;;;;;;17.77;13.85;;;;;;;8.48;90.32;101564.31;7398180;19;20494;-69
2023/05/07 01:06:16;;;;;;;20.75;14.05;;;;;;;8.49;90.47;101560.78;7400232;19;20022;-69
2023/05/07 01:08:45;;;;;;;16.50;14.48;;;;;;;8.48;90.27;101556.47;7400340;19;20010;-69
2023/05/07 01:11:14;;;;;;;17.60;14.73;;;;;;;8.47;90.43;101549.47;7400101;19;20014;-69
2023/05/07 01:13:44;;;;;;;19.77;14.45;;;;;;;8.46;90.52;101552.97;7396338;19;20014;-66
2023/05/07 01:16:15;;;;;;;17.73;14.50;;;;;;;8.45;90.54;101557.31;7400731;19;20015;-68
2023/05/07 01:18:44;;;;;;;18.38;15.63;;;;;;;8.43;90.66;101550.31;7399565;19;20015;-68
2023/05/07 01:21:14;;;;;;;16.50;14.70;;;;;;;8.42;90.89;101551.19;7400516;19;20078;-70
2023/05/07 01:23:46;;;;;;;16.73;14.18;;;;;;;8.42;90.91;101557.28;7398344;19;20485;-68
2023/05/07 01:26:15;;;;;;;16.85;14.63;;;;;;;8.42;90.84;101559.03;7399246;19;20031;-68
2023/05/07 01:28:43;;;;;;;15.43;13.82;;;;;;;8.40;90.98;101553.78;7401698;19;20017;-67
2023/05/07 01:31:12;;;;;;;16.77;14.35;;;;;;;8.39;91.16;101559.03;7401335;19;20496;-67
2023/05/07 01:33:43;;;;;;;16.67;14.68;;;;;;;8.39;91.10;101553.78;7398825;19;20435;-69
2023/05/07 01:36:12;;;;;;;16.30;13.38;;;;;;;8.37;91.04;101548.56;7398823;19;20091;-69
2023/05/07 01:38:45;;;;;;;16.85;13.93;;;;;;;8.37;91.26;101555.56;7399313;19;20537;-69
2023/05/07 01:41:14;;;;;;;16.02;14.15;;;;;;;8.36;91.27;101552.03;7398682;19;20032;-68
2023/05/07 01:43:44;;;;;;;20.05;14.48;;;;;;;8.34;91.18;101542.47;7398126;19;20019;-69
2023/05/07 01:46:13;;;;;;;16.58;14.00;;;;;;;8.36;91.27;101553.81;7397682;19;20423;-69
2023/05/07 01:48:45;;;;;;;17.60;14.23;;;;;;;8.35;91.19;101555.53;7398105;19;20019;-69
2023/05/07 01:51:14;;;;;;;19.63;14.55;;;;;;;8.36;91.35;101551.19;7398745;19;20022;-68
2023/05/07 01:53:50;;;;;;;17.52;14.13;;;;;;;8.36;91.19;101546.81;7398228;19;20087;-69
2023/05/07 01:56:19;;;;;;;18.63;15.05;;;;;;;8.35;91.23;101547.69;7399423;19;20022;-69
2023/05/07 01:58:47;;;;;;;17.08;12.80;;;;;;;8.33;91.11;101546.84;7399110;19;20090;-67
2023/05/07 02:01:16;;;;;;;16.90;14.40;;;;;;;8.35;91.07;101552.91;7400248;19;20134;-69
2023/05/07 02:03:45;;;;;;;15.50;12.60;;;;;;;8.34;91.11;101555.53;7397822;19;20025;-68
2023/05/07 02:06:13;;;;;;;15.00;12.70;;;;;;;8.36;91.18;101559.03;7399844;19;20074;-69
2023/05/07 02:08:44;;;;;;;16.77;12.70;;;;;;;8.35;91.22;101549.44;7400083;19;20095;-69
2023/05/07 02:11:13;;;;;;;15.13;12.57;;;;;;;8.35;91.04;101557.28;7400150;19;20031;-68
2023/05/07 02:13:41;;;;;;;13.10;11.68;;;;;;;8.35;91.14;101562.50;7397672;19;20025;-69
2023/05/07 02:16:10;;;;;;;13.38;11.85;;;;;;;8.34;91.01;101560.75;7397685;19;20022;-69
2023/05/07 02:18:39;;;;;;;14.43;11.88;;;;;;;8.32;90.99;101559.00;7397547;19;20109;-69
2023/05/07 02:21:07;;;;;;;13.68;11.95;;;;;;;8.30;91.02;101558.16;7399466;19;20508;-69
2023/05/07 02:23:35;;;;;;;15.80;11.55;;;;;;;8.30;90.90;101565.13;7397282;19;20011;-68
2023/05/07 02:26:07;;;;;;;14.13;11.23;;;;;;;8.30;90.99;101568.63;7396923;19;20017;-69
2023/05/07 02:28:36;;;;;;;13.02;10.98;;;;;;;8.30;90.96;101572.97;7397504;19;20074;-69
2023/05/07 02:31:05;;;;;;;13.45;11.73;;;;;;;8.31;90.82;101574.72;7398829;19;20489;-69
2023/05/07 02:33:34;;;;;;;15.63;11.00;;;;;;;8.30;90.97;101573.84;7397937;19;20014;-68
2023/05/07 02:36:08;;;;;;;15.60;11.75;;;;;;;8.29;90.76;101574.72;7400762;19;20520;-68
2023/05/07 02:38:37;;;;;;;15.35;11.30;;;;;;;8.30;90.77;101578.19;7418698;19;20033;-70
2023/05/07 02:41:08;;;;;;;14.10;11.70;;;;;;;8.29;90.72;101574.72;7423484;19;20022;-69
2023/05/07 02:43:36;;;;;;;15.98;12.15;;;;;;;8.29;90.87;101574.72;7424971;19;20513;-70
2023/05/07 02:46:06;;;;;;;13.38;11.77;;;;;;;8.21;90.84;101558.13;7408953;19;20577;-69
2023/05/07 02:48:34;;;;;;;14.77;11.98;;;;;;;8.30;90.66;101573.84;7398149;19;20553;-69
2023/05/07 02:51:03;;;;;;;13.07;11.10;;;;;;;8.32;90.65;101579.06;7397829;19;20494;-69
2023/05/07 02:53:32;;;;;;;13.77;11.40;;;;;;;8.32;90.62;101579.06;7396095;19;20082;-69
2023/05/07 02:56:02;;;;;;;14.05;11.32;;;;;;;8.32;90.68;101574.69;7396587;19;20027;-69
2023/05/07 02:58:33;;;;;;;13.13;11.73;;;;;;;8.31;90.58;101570.38;7395736;19;20035;-69
2023/05/07 03:01:01;;;;;;;13.32;11.43;;;;;;;8.31;90.55;101572.97;7396982;19;20021;-69
2023/05/07 03:03:30;;;;;;;12.48;11.15;;;;;;;8.32;90.46;101573.84;7396184;19;20021;-69
2023/05/07 03:05:58;;;;;;;13.90;11.70;;;;;;;8.30;90.41;101571.22;7397901;19;20489;-67
2023/05/07 03:08:27;;;;;;;12.70;10.75;;;;;;;8.30;90.45;101571.22;7397623;19;20082;-69
2023/05/07 03:10:55;;;;;;;13.13;11.18;;;;;;;8.29;90.57;101574.72;7396317;19;20029;-69
2023/05/07 03:13:24;;;;;;;13.48;11.38;;;;;;;8.28;90.42;101566.88;7395557;19;20002;-69
2023/05/07 03:15:55;;;;;;;15.68;11.80;;;;;;;8.28;90.49;101577.34;7397672;19;20086;-69
2023/05/07 03:18:23;;;;;;;16.83;11.93;;;;;;;8.27;90.54;101579.06;7396171;19;20022;-67
2023/05/07 03:20:52;;;;;;;14.40;11.38;;;;;;;8.27;90.30;101584.28;7397265;19;20025;-69
2023/05/07 03:23:20;;;;;;;12.05;10.75;;;;;;;8.27;90.39;101588.66;7395523;19;20019;-69
2023/05/07 03:25:49;;;;;;;11.93;10.73;;;;;;;8.25;90.42;101575.59;7397576;19;20020;-69
2023/05/07 03:28:17;;;;;;;13.32;11.50;;;;;;;8.27;90.39;101589.50;7395682;19;20018;-69
2023/05/07 03:30:46;;;;;;;13.32;11.52;;;;;;;8.26;90.50;101597.38;7395282;19;20083;-69
2023/05/07 03:33:17;;;;;;;12.00;10.50;;;;;;;8.27;90.41;101591.28;7395371;19;20018;-67
2023/05/07 03:35:45;;;;;;;13.98;10.95;;;;;;;8.26;90.32;101598.22;7402547;19;20078;-67
2023/05/07 03:38:14;;;;;;;12.95;11.63;;;;;;;8.26;90.32;101594.75;7398456;19;20015;-69
2023/05/07 03:40:42;;;;;;;11.63;10.20;;;;;;;8.26;90.19;101598.22;7394922;19;20358;-68
2023/05/07 03:43:10;;;;;;;12.30;11.07;;;;;;;8.26;90.43;101598.22;7396266;19;20032;-69
2023/05/07 03:45:39;;;;;;;13.23;11.45;;;;;;;8.26;90.23;101606.06;7395063;19;20083;-69
2023/05/07 03:48:07;;;;;;;13.02;10.88;;;;;;;8.26;90.16;101599.97;7394719;19;20489;-68
2023/05/07 03:50:39;;;;;;;12.10;10.80;;;;;;;8.27;90.32;101614.81;7393860;19;20011;-69
2023/05/07 03:53:07;;;;;;;15.07;10.95;;;;;;;8.27;90.06;101606.94;7394948;19;20098;-69
2023/05/07 03:55:35;;;;;;;13.38;11.15;;;;;;;8.27;90.23;101606.94;7395880;19;20511;-69
2023/05/07 03:58:04;;;;;;;17.27;10.60;;;;;;;8.27;90.09;101606.94;7396080;19;20028;-69
2023/05/07 04:00:37;;;;;;;14.10;10.65;;;;;;;8.26;89.89;101613.03;7394525;19;20027;-69
2023/05/07 04:03:06;;;;;;;15.85;11.43;;;;;;;8.28;90.13;101609.56;7394363;19;20015;-69
2023/05/07 04:05:35;;;;;;;11.43;10.10;;;;;;;8.28;89.98;101620.03;7393813;19;20023;-69
2023/05/07 04:08:06;;;;;;;11.57;10.35;;;;;;;8.27;89.93;101613.03;7394488;19;20099;-69
2023/05/07 04:10:34;;;;;;;11.52;10.20;;;;;;;8.27;90.00;101610.44;7394837;19;20035;-69
2023/05/07 04:13:03;;;;;;;13.48;10.68;;;;;;;8.26;89.86;101621.75;7395760;19;20504;-69
2023/05/07 04:15:38;;;;;;;12.68;10.50;;;;;;;8.24;89.87;101614.78;7399942;19;20034;-68
2023/05/07 04:18:07;;;;;;;13.52;10.13;;;;;;;8.26;89.70;101626.97;7401683;19;20372;-68
2023/05/07 04:20:38;;;;;;;13.85;10.95;;;;;;;8.26;89.66;101631.34;7403259;19;20035;-69
2023/05/07 04:23:09;;;;;;;13.38;9.93;;;;;;;8.26;89.53;101621.75;7402271;19;20495;-69
2023/05/07 04:25:38;;;;;;;12.10;10.68;;;;;;;8.26;89.54;101626.97;7402796;19;20019;-68
2023/05/07 04:28:07;;;;;;;11.52;9.52;;;;;;;8.27;89.38;101628.72;7403785;19;20383;-68
2023/05/07 04:30:35;;;;;;;12.43;10.13;;;;;;;8.28;89.15;101624.41;7401182;19;20015;-69
2023/05/07 04:33:04;;;;;;;12.05;9.27;;;;;;;8.28;88.68;101643.56;7403786;19;20022;-69
2023/05/07 04:35:32;;;;;;;12.25;8.95;;;;;;;8.28;88.73;101650.53;7401646;19;20124;-69
2023/05/07 04:38:01;;;;;;;11.25;8.38;;;;;;;8.26;88.72;101650.50;7399341;19;20018;-69
2023/05/07 04:40:32;;;;;;;10.60;9.50;;;;;;;8.28;88.38;101651.41;7402800;19;20023;-69
2023/05/07 04:43:01;;;;;;;10.23;8.75;;;;;;;8.28;88.30;101656.63;7399719;19;20014;-68
2023/05/07 04:45:29;;;;;;;9.57;8.57;;;;;;;8.27;88.20;101660.09;7399568;19;20380;-68
2023/05/07 04:47:58;;;;;;;11.10;8.63;;;;;;;8.29;87.93;101665.31;7400364;19;20037;-69
2023/05/07 04:50:26;;;;;;;9.50;8.25;;;;;;;8.28;87.49;101674.06;7403027;19;20007;-68
2023/05/07 04:52:55;;;;;;;9.82;8.55;;;;;;;8.29;87.73;101678.41;7399331;19;20028;-68
2023/05/07 04:55:23;;;;;;;11.38;8.13;;;;;;;8.29;87.49;101674.06;7399124;19;20014;-69
2023/05/07 04:57:55;;;;;;;9.23;8.32;;;;;;;8.32;87.47;101673.19;7401887;19;20022;-68
2023/05/07 05:00:25;;;;;;;10.35;8.20;;;;;;;8.35;87.34;101672.34;7399561;19;20014;-68
2023/05/07 05:02:53;;;;;;;11.65;9.40;;;;;;;8.36;87.23;101674.94;7401923;19;20374;-69
2023/05/07 05:05:22;;;;;;;12.00;8.43;;;;;;;8.38;87.03;101677.56;7399321;19;20019;-68
2023/05/07 05:07:51;;;;;;;11.52;8.30;;;;;;;8.40;86.96;101675.81;7401979;19;20041;-68
2023/05/07 05:10:20;;;;;;;16.10;12.35;;;;;;;8.40;86.78;101678.44;7399430;19;20018;-68
2023/05/07 05:12:48;;;;;;;14.52;10.45;;;;;;;8.40;86.55;101676.69;7399231;19;20018;-69
2023/05/07 05:15:19;;;;;;;11.80;8.95;;;;;;;8.42;86.54;101676.72;7399846;19;20031;-69
2023/05/07 05:17:48;;;;;;;11.73;9.40;;;;;;;8.41;86.39;101672.34;7401585;19;20015;-69
2023/05/07 05:20:16;;;;;;;12.05;9.68;;;;;;;8.43;86.35;101673.22;7399382;19;20013;-69
2023/05/07 05:22:45;;;;;;;13.98;9.73;;;;;;;8.43;86.37;101681.09;7401117;19;20028;-69
2023/05/07 05:25:13;;;;;;;10.15;8.95;;;;;;;8.41;86.26;101675.81;7397593;19;20023;-70
2023/05/07 05:27:42;;;;;;;11.82;9.00;;;;;;;8.42;86.20;101682.81;7397920;19;20424;-69
2023/05/07 05:30:12;;;;;;;10.13;9.13;;;;;;;8.42;86.30;101680.19;7400866;19;20031;-69
2023/05/07 05:32:43;;;;;;;10.73;9.15;;;;;;;8.44;86.53;101682.81;7400212;19;20011;-68
2023/05/07 05:35:12;;;;;;;10.68;9.27;;;;;;;8.43;86.40;101679.31;7401723;19;20035;-69
2023/05/07 05:37:40;;;;;;;11.68;9.73;;;;;;;8.44;86.35;101681.06;7400623;19;20452;-69
2023/05/07 05:40:10;;;;;;;12.25;10.95;;;;;;;8.46;86.43;101681.09;7398092;19;20018;-69
2023/05/07 05:42:38;;;;;;;11.52;8.95;;;;;;;8.48;86.50;101684.59;7400579;19;20031;-67
2023/05/07 05:45:08;;;;;;;10.95;9.25;;;;;;;8.47;86.25;101683.72;7398386;19;20389;-68
2023/05/07 05:47:37;;;;;;;13.00;9.25;;;;;;;8.45;86.28;101680.22;7397812;19;20031;-68
2023/05/07 05:50:09;;;;;;;12.52;9.48;;;;;;;8.44;86.37;101685.41;7397897;19;20035;-68
2023/05/07 05:52:38;;;;;;;10.68;8.90;;;;;;;8.44;86.33;101688.91;7397425;19;20027;-69
2023/05/07 05:55:07;;;;;;;13.68;9.00;;;;;;;8.45;86.12;101690.69;7400828;19;20014;-69
2023/05/07 05:57:36;;;;;;;15.80;9.35;;;;;;;8.45;85.99;101692.41;7398052;19;20036;-68
2023/05/07 06:00:05;;;;;;;10.07;8.80;;;;;;;8.46;85.90;101686.34;7397783;19;20031;-69
2023/05/07 06:02:33;;;;;;;9.70;8.68;;;;;;;8.48;85.71;101695.94;7397859;19;20018;-69
2023/05/07 06:05:02;;;;;;;13.05;8.75;;;;;;;8.49;85.44;101688.94;7398234;19;20116;-69
2023/05/07 06:07:34;;;;;;;9.88;8.52;;;;;;;8.51;85.41;101692.44;7398176;19;20010;-69
2023/05/07 06:10:02;;;;;;;8.13;7.32;;;;;;;8.54;85.45;101700.28;7397931;19;20360;-68
2023/05/07 06:12:31;;;;;;;10.02;8.35;;;;;;;8.58;85.18;101712.53;7398367;19;20031;-69
2023/05/07 06:14:59;;;;;;;10.60;7.88;;;;;;;8.61;84.96;101712.50;7397878;19;20014;-68
2023/05/07 06:17:28;;;;;;;9.65;8.15;;;;;;;8.62;84.80;101708.19;7399731;19;20018;-70
2023/05/07 06:19:56;;;;;;;10.80;8.25;;;;;;;8.63;84.63;101710.78;7398334;19;20485;-69
2023/05/07 06:22:25;;;;;;;11.77;8.60;;;;;;;8.67;84.73;101709.06;7398995;19;20019;-68
2023/05/07 06:24:56;;;;;;;11.45;9.02;;;;;;;8.72;84.38;101715.16;7398109;19;20082;-69
2023/05/07 06:27:24;;;;;;;10.45;9.35;;;;;;;8.74;84.25;101708.16;7412003;19;20018;-70
2023/05/07 06:29:53;;;;;;;14.52;9.57;;;;;;;8.78;84.26;101709.06;7410210;19;20018;-69
2023/05/07 06:32:21;;;;;;;11.63;9.55;;;;;;;8.79;84.21;101703.81;7414002;19;20021;-70
2023/05/07 06:34:50;;;;;;;12.48;10.80;;;;;;;8.81;83.81;101703.84;7400696;19;20018;-69
2023/05/07 06:37:47;;;;;;;12.88;11.43;;;;;;;8.86;84.00;101698.59;7399142;19;20006;-70
2023/05/07 06:40:19;;;;;;;14.55;11.48;;;;;;;8.89;83.86;101701.22;7398059;19;20018;-69
2023/05/07 06:42:47;;;;;;;12.55;10.63;;;;;;;8.94;83.85;101700.34;7397461;19;20006;-69
2023/05/07 06:45:16;;;;;;;12.15;10.02;;;;;;;9.01;83.77;101705.59;7397865;19;20033;-69
2023/05/07 06:47:44;;;;;;;11.68;9.80;;;;;;;9.07;83.57;101702.97;7397186;19;20014;-68
2023/05/07 06:50:15;;;;;;;10.55;9.43;;;;;;;9.11;83.43;101697.75;7396993;19;20028;-69
2023/05/07 06:52:44;;;;;;;10.70;8.60;;;;;;;9.20;83.13;101699.47;7396702;19;20471;-69
2023/05/07 06:55:13;;;;;;;9.80;8.60;;;;;;;9.25;82.65;101702.97;7397008;19;20022;-69
2023/05/07 06:57:44;;;;;;;10.00;8.88;;;;;;;9.31;82.55;101704.69;7396573;19;20028;-69
2023/05/07 07:00:14;;;;;;;10.23;8.43;;;;;;;9.37;82.34;101696.81;7397282;19;20022;-70
2023/05/07 07:02:43;;;;;;;10.13;8.35;;;;;;;9.43;81.94;101704.69;7396264;19;20018;-68
2023/05/07 07:05:12;;;;;;;9.32;8.13;;;;;;;9.51;81.60;101707.28;7397041;19;20504;-69
2023/05/07 07:07:40;;;;;;;8.50;7.47;;;;;;;9.57;81.41;101711.66;7395510;19;20368;-69
2023/05/07 07:10:10;;;;;;;9.43;6.93;;;;;;;9.63;80.58;101719.50;7395759;19;20494;-70
2023/05/07 07:12:38;;;;;;;9.52;6.85;;;;;;;9.65;80.14;101722.13;7397330;19;20027;-69
2023/05/07 07:15:17;;;;;;;9.50;7.13;;;;;;;9.66;79.44;101729.97;7395919;19;20018;-68
2023/05/07 07:17:45;;;;;;;9.23;6.35;;;;;;;9.69;79.83;101732.59;7400121;19;20490;-69
2023/05/07 07:20:14;;;;;;;9.15;6.97;;;;;;;9.72;79.55;101731.72;7396386;19;20078;-69
2023/05/07 07:22:43;;;;;;;8.02;6.35;;;;;;;9.75;79.08;101734.31;7407794;19;20010;-69
2023/05/07 07:25:12;;;;;;;7.07;6.38;;;;;;;9.79;79.15;101725.56;7409069;19;20022;-70
2023/05/07 07:27:40;;;;;;;7.75;6.15;;;;;;;9.87;79.14;101725.53;7407278;19;20018;-67
2023/05/07 07:30:10;;;;;;;9.65;6.93;;;;;;;9.94;79.08;101736.03;7408950;19;20011;-68
2023/05/07 07:32:41;;;;;;;10.10;7.47;;;;;;;10.04;78.83;101738.59;7402747;19;20019;-70
2023/05/07 07:35:11;;;;;;;7.88;6.88;;;;;;;10.14;78.66;101742.94;7400776;19;20071;-69
2023/05/07 07:37:39;;;;;;;9.82;8.07;;;;;;;10.21;78.27;101736.78;7399654;19;20424;-69
2023/05/07 07:40:09;;;;;;;10.68;6.78;;;;;;;10.26;77.85;101737.63;7398752;19;20022;-68
2023/05/07 07:42:38;;;;;;;7.68;5.88;;;;;;;10.30;77.53;101743.75;7401198;19;20358;-69
2023/05/07 07:45:08;;;;;;;8.65;6.00;;;;;;;10.33;77.02;101737.63;7401540;19;20351;-69
2023/05/07 07:47:37;;;;;;;10.75;6.47;;;;;;;10.36;76.95;101750.72;7403896;19;20368;-68
2023/05/07 07:50:09;;;;;;;9.13;6.20;;;;;;;10.38;76.70;101751.59;7407214;19;20014;-69
2023/05/07 07:52:38;;;;;;;7.00;6.30;;;;;;;10.40;76.36;101748.09;7407360;19;20015;-69
2023/05/07 07:55:08;;;;;;;7.25;6.30;;;;;;;10.40;76.54;101748.09;7403916;19;20028;-70
2023/05/07 07:57:36;;;;;;;9.75;6.47;;;;;;;10.50;76.60;101754.19;7404983;19;20015;-68
2023/05/07 08:00:07;;;;;;;6.57;5.40;;;;;;;10.58;75.96;101757.63;7405251;19;20011;-71
2023/05/07 08:02:35;;;;;;;9.30;6.65;;;;;;;10.67;75.59;101750.59;7407917;19;20017;-69
2023/05/07 08:05:04;;;;;;;6.53;5.55;;;;;;;10.74;75.24;101747.91;7407003;19;20379;-68
2023/05/07 08:07:35;;;;;;;6.95;4.78;;;;;;;10.81;74.84;101742.63;7407311;19;20035;-70
2023/05/07 08:10:03;;;;;;;6.05;5.18;;;;;;;10.89;74.82;101746.94;7406805;19;20010;-68
2023/05/07 08:12:32;;;;;;;5.88;4.40;;;;;;;10.97;74.36;101744.25;7407140;19;20018;-69
2023/05/07 08:15:01;;;;;;;5.88;4.65;;;;;;;11.05;74.25;101731.91;7404621;19;20010;-69
2023/05/07 08:17:29;;;;;;;5.72;4.70;;;;;;;11.14;73.87;101736.22;7406972;19;20027;-69
2023/05/07 08:19:58;;;;;;;5.72;4.75;;;;;;;11.26;73.60;101740.53;7404559;19;20032;-69
2023/05/07 08:22:26;;;;;;;4.93;4.43;;;;;;;11.37;72.93;101743.03;7406203;19;20035;-68
2023/05/07 08:24:57;;;;;;;4.97;4.47;;;;;;;11.44;72.41;101739.47;7419496;19;20019;-68
2023/05/07 08:27:26;;;;;;;6.65;4.53;;;;;;;11.52;71.93;101742.03;7425676;19;20014;-69
2023/05/07 08:29:54;;;;;;;7.38;4.75;;;;;;;11.55;71.81;101742.88;7425449;19;20034;-69
2023/05/07 08:32:23;;;;;;;7.32;4.82;;;;;;;11.63;71.60;101748.06;7413034;19;20018;-70
2023/05/07 08:34:52;;;;;;;6.05;4.75;;;;;;;11.66;71.37;101748.00;7401998;19;20022;-69
2023/05/07 08:37:20;;;;;;;6.15;5.30;;;;;;;11.73;70.73;101748.84;7404465;19;20371;-70
2023/05/07 08:39:49;;;;;;;7.78;4.88;;;;;;;11.77;70.72;101747.91;7404923;19;20086;-69
2023/05/07 08:42:20;;;;;;;5.75;4.53;;;;;;;11.83;70.50;101744.38;7403705;19;20485;-69
2023/05/07 08:44:49;;;;;;;5.53;4.07;;;;;;;11.89;70.39;101745.16;7404787;19;20018;-69
2023/05/07 08:47:18;;;;;;;5.60;4.50;;;;;;;11.95;70.07;101746.81;7407121;19;20496;-69
2023/05/07 08:49:47;;;;;;;4.90;3.85;;;;;;;11.98;69.71;101740.69;7403304;19;20014;-70
2023/05/07 08:52:16;;;;;;;5.32;3.80;;;;;;;11.97;68.81;101755.63;7404306;19;20015;-70
2023/05/07 08:54:45;;;;;;;5.00;4.50;;;;;;;11.95;68.81;101752.09;7401098;19;20010;-69
2023/05/07 08:57:14;;;;;;;4.90;4.30;;;;;;;11.93;68.83;101761.78;7402991;19;20014;-69
2023/05/07 08:59:45;;;;;;;5.60;4.05;;;;;;;11.94;69.01;101768.75;7402515;19;20037;-69
2023/05/07 09:02:14;;;;;;;8.57;4.85;;;;;;;11.95;69.26;101775.75;7403315;19;20033;-69
2023/05/07 09:04:43;;;;;;;5.20;4.45;;;;;;;11.98;69.18;101782.78;7402508;19;20018;-70
2023/05/07 09:07:12;;;;;;;5.82;4.60;;;;;;;12.00;68.94;101776.59;7402345;19;20014;-70
2023/05/07 09:09:40;;;;;;;5.28;4.50;;;;;;;12.02;68.71;101779.25;7405157;19;20010;-70
2023/05/07 09:12:09;;;;;;;6.63;4.30;;;;;;;11.98;68.68;101783.66;7412845;19;20019;-67
2023/05/07 09:14:38;;;;;;;5.15;3.80;;;;;;;11.96;68.80;101781.94;7402021;19;20028;-70
2023/05/07 09:17:09;;;;;;;5.53;4.95;;;;;;;11.93;68.63;101785.44;7400440;19;20026;-70
2023/05/07 09:19:38;;;;;;;8.23;5.93;;;;;;;11.92;69.10;101790.69;7402213;19;20027;-73
2023/05/07 09:22:08;;;;;;;7.05;4.85;;;;;;;11.90;69.04;101788.97;7400498;19;20018;-72
2023/05/07 09:24:37;;;;;;;6.65;4.32;;;;;;;11.87;68.79;101796.88;7399864;19;20545;-69
2023/05/07 09:27:06;;;;;;;5.15;4.65;;;;;;;11.80;68.59;101794.34;7399676;19;20496;-67
2023/05/07 09:29:35;;;;;;;7.25;4.55;;;;;;;11.82;69.01;101797.81;7400234;19;20030;-69
2023/05/07 09:32:04;;;;;;;4.90;4.10;;;;;;;11.89;68.84;101797.75;7401605;19;20382;-68
2023/05/07 09:34:37;;;;;;;6.45;4.32;;;;;;;11.97;67.83;101807.34;7402979;19;20021;-69
2023/05/07 09:37:07;;;;;;;6.82;4.50;;;;;;;11.99;67.92;101797.66;7403548;19;20014;-70
2023/05/07 09:39:42;;;;;;;5.53;4.35;;;;;;;11.93;67.47;101801.22;7403669;19;20041;-69
2023/05/07 09:42:11;;;;;;;4.32;3.92;;;;;;;11.90;68.17;101811.75;7403289;19;20021;-69
2023/05/07 09:44:40;;;;;;;7.03;5.38;;;;;;;11.93;68.19;101811.75;7402228;19;20010;-68
2023/05/07 09:47:09;;;;;;;6.85;4.97;;;;;;;11.98;67.84;101811.69;7402335;19;20026;-68
2023/05/07 09:49:42;;;;;;;7.18;5.03;;;;;;;12.01;67.43;101811.69;7403712;19;20037;-69
2023/05/07 09:52:11;;;;;;;5.53;4.97;;;;;;;11.99;67.52;101801.19;7401176;19;20014;-68
2023/05/07 09:54:41;;;;;;;5.88;3.90;;;;;;;12.04;67.39;101803.75;7399681;19;20015;-70
2023/05/07 09:57:11;;;;;;;6.30;4.57;;;;;;;12.02;67.31;101801.16;7399441;19;20010;-71
2023/05/07 09:59:41;;;;;;;5.70;4.20;;;;;;;12.03;67.42;101807.25;7400707;19;20015;-69
2023/05/07 10:02:12;;;;;;;6.18;4.30;;;;;;;12.05;67.41;101800.25;7400991;19;20499;-68
2023/05/07 10:04:43;;;;;;;5.45;4.68;;;;;;;12.11;67.43;101799.31;7402057;19;20051;-68
2023/05/07 10:07:12;;;;;;;8.32;6.03;;;;;;;12.12;67.49;101796.66;7404472;19;20014;-70
2023/05/07 10:09:43;;;;;;;5.32;4.70;;;;;;;12.21;67.18;101799.19;7402211;19;20014;-69
2023/05/07 10:12:12;;;;;;;6.05;4.75;;;;;;;12.22;67.04;101805.31;7400954;19;20014;-68
2023/05/07 10:14:41;;;;;;;6.07;4.15;;;;;;;12.26;67.04;101803.50;7401030;19;20385;-69
2023/05/07 10:17:11;;;;;;;5.10;4.10;;;;;;;12.31;66.81;101801.69;7399202;19;20028;-69
2023/05/07 10:19:43;;;;;;;5.18;4.25;;;;;;;12.33;66.41;101815.72;7402605;19;20031;-69
2023/05/07 10:22:12;;;;;;;5.50;4.05;;;;;;;12.36;66.52;101808.66;7401126;19;20015;-69
2023/05/07 10:24:41;;;;;;;5.32;3.92;;;;;;;12.41;66.51;101811.25;7400711;19;20014;-71
2023/05/07 10:27:14;;;;;;;5.95;4.82;;;;;;;12.46;66.21;101811.16;7401451;19;20018;-69
2023/05/07 10:29:53;;;;;;;5.80;5.20;;;;;;;12.54;66.14;101810.16;7401946;19;20015;-70
2023/05/07 10:32:41;;;;;;;6.40;5.50;;;;;;;12.66;65.99;101811.78;7400671;19;20015;-68
2023/05/07 10:35:18;;;;;;;6.60;5.18;;;;;;;12.71;65.40;101822.25;7399382;19;20457;-70
2023/05/07 10:37:48;;;;;;;4.65;3.85;;;;;;;12.73;65.42;101812.56;7401591;19;20011;-68
2023/05/07 10:40:17;;;;;;;5.03;4.53;;;;;;;12.75;65.66;101817.81;7398961;19;20423;-67
2023/05/07 10:43:01;;;;;;;20.92;12.35;;;;;;;12.73;65.32;101804.66;7399001;19;20038;-69
2023/05/07 10:45:30;;;;;;;10.20;7.30;;;;;;;12.77;65.62;101811.63;7399262;19;20488;-68
2023/05/07 10:48:09;;;;;;;6.28;5.13;;;;;;;12.86;65.41;101806.25;7398001;19;20011;-68
2023/05/07 10:50:42;;;;;;;8.50;5.20;;;;;;;12.97;65.07;101792.06;7399471;19;20520;-68
2023/05/07 10:53:29;;;;;;;3.75;3.35;;;;;;;13.06;63.59;101802.44;7400125;19;20011;-69
2023/05/07 10:56:29;;;;;;;4.30;3.88;;;;;;;13.13;63.44;101798.81;7399509;19;20371;-69
2023/05/07 10:58:58;;;;;;;4.13;3.33;;;;;;;13.19;64.07;101798.72;7399057;19;20516;-69
2023/05/07 11:01:55;;;;;;;5.32;3.63;;;;;;;13.24;62.37;101803.06;7398135;19;20018;-69
2023/05/07 11:04:27;;;;;;;4.38;3.35;;;;;;;13.29;63.79;101799.44;7397523;19;20015;-70
2023/05/07 11:07:23;;;;;;;5.65;3.72;;;;;;;13.37;61.51;101796.72;7399243;19;20018;-67
2023/05/07 11:10:01;;;;;;;6.93;4.63;;;;;;;13.46;62.00;101785.16;7398379;19;20489;-68
2023/05/07 11:12:54;;;;;;;4.78;3.42;;;;;;;13.61;61.74;101779.59;7397119;19;20010;-67
2023/05/07 11:15:53;;;;;;;4.32;3.20;;;;;;;13.69;61.61;101782.09;7396605;19;20011;-69
2023/05/07 11:18:49;;;;;;;3.50;2.83;;;;;;;13.73;61.09;101783.78;7400506;19;20039;-67
2023/05/07 11:21:35;;;;;;;5.07;2.90;;;;;;;13.85;59.92;101774.78;7396454;19;20145;-67
2023/05/07 11:24:07;;;;;;;3.13;2.80;;;;;;;13.95;60.72;101772.81;7398138;19;20014;-65
2023/05/07 11:26:49;;;;;;;3.00;2.65;;;;;;;14.05;60.55;101774.38;7397549;19;20078;-69
2023/05/07 11:29:20;;;;;;;3.10;2.80;;;;;;;14.10;60.49;101776.94;7403089;19;20010;-70
2023/05/07 11:31:52;;;;;;;4.18;2.78;;;;;;;14.10;60.41;101772.53;7408836;19;20014;-69
2023/05/07 11:34:25;;;;;;;3.30;2.58;;;;;;;14.16;59.94;101769.75;7404466;19;20017;-68
2023/05/07 11:36:54;;;;;;;2.75;2.17;;;;;;;14.16;60.16;101759.19;7396652;19;20015;-68